sensor_id;sensor_type;location;lat;lon;timestamp;temperature;humidity
57709;SHT35;42558;52.388;13.390;2024-01-06T00:00:52;1.24;93.80
57709;SHT35;42558;52.388;13.390;2024-01-06T00:03:20;1.23;93.80
57709;SHT35;42558;52.388;13.390;2024-01-06T00:05:49;1.24;93.80
57709;SHT35;42558;52.388;13.390;2024-01-06T00:08:17;1.24;93.80
57709;SHT35;42558;52.388;13.390;2024-01-06T00:10:46;1.25;93.79
57709;SHT35;42558;52.388;13.390;2024-01-06T00:13:14;1.24;93.80
57709;SHT35;42558;52.388;13.390;2024-01-06T00:15:43;1.27;93.80
57709;SHT35;42558;52.388;13.390;2024-01-06T00:18:11;1.26;93.79
57709;SHT35;42558;52.388;13.390;2024-01-06T00:20:39;1.19;93.78
57709;SHT35;42558;52.388;13.390;2024-01-06T00:23:08;1.21;93.80
57709;SHT35;42558;52.388;13.390;2024-01-06T00:25:36;1.23;93.80
57709;SHT35;42558;52.388;13.390;2024-01-06T00:28:05;1.21;93.77
57709;SHT35;42558;52.388;13.390;2024-01-06T00:30:33;1.18;93.79
57709;SHT35;42558;52.388;13.390;2024-01-06T00:33:01;1.21;93.80
57709;SHT35;42558;52.388;13.390;2024-01-06T00:35:30;1.23;93.80
57709;SHT35;42558;52.388;13.390;2024-01-06T00:37:58;1.19;93.80
57709;SHT35;42558;52.388;13.390;2024-01-06T00:40:27;1.12;93.74
57709;SHT35;42558;52.388;13.390;2024-01-06T00:42:55;1.09;93.79
57709;SHT35;42558;52.388;13.390;2024-01-06T00:45:23;1.13;93.84
57709;SHT35;42558;52.388;13.390;2024-01-06T00:47:52;1.15;93.82
57709;SHT35;42558;52.388;13.390;2024-01-06T00:50:20;1.12;93.80
57709;SHT35;42558;52.388;13.390;2024-01-06T00:52:49;1.12;93.80
57709;SHT35;42558;52.388;13.390;2024-01-06T00:55:22;1.13;93.80
57709;SHT35;42558;52.388;13.390;2024-01-06T00:57:52;1.14;93.81
57709;SHT35;42558;52.388;13.390;2024-01-06T01:00:21;1.16;93.80
57709;SHT35;42558;52.388;13.390;2024-01-06T01:02:51;1.14;93.79
57709;SHT35;42558;52.388;13.390;2024-01-06T01:05:20;1.13;93.77
57709;SHT35;42558;52.388;13.390;2024-01-06T01:07:49;1.09;93.76
57709;SHT35;42558;52.388;13.390;2024-01-06T01:10:19;1.08;93.80
57709;SHT35;42558;52.388;13.390;2024-01-06T01:12:48;1.04;93.80
57709;SHT35;42558;52.388;13.390;2024-01-06T01:15:17;1.03;93.81
57709;SHT35;42558;52.388;13.390;2024-01-06T01:17:46;1.04;93.83
57709;SHT35;42558;52.388;13.390;2024-01-06T01:20:16;1.05;93.85
57709;SHT35;42558;52.388;13.390;2024-01-06T01:22:45;1.07;93.87
57709;SHT35;42558;52.388;13.390;2024-01-06T01:25:14;1.05;93.84
57709;SHT35;42558;52.388;13.390;2024-01-06T01:27:44;1.05;93.81
57709;SHT35;42558;52.388;13.390;2024-01-06T01:30:13;1.06;93.83
57709;SHT35;42558;52.388;13.390;2024-01-06T01:32:43;1.11;93.86
57709;SHT35;42558;52.388;13.390;2024-01-06T01:35:13;1.05;93.80
57709;SHT35;42558;52.388;13.390;2024-01-06T01:37:43;1.05;93.80
57709;SHT35;42558;52.388;13.390;2024-01-06T01:40:12;1.05;93.79
57709;SHT35;42558;52.388;13.390;2024-01-06T01:42:42;1.00;93.74
57709;SHT35;42558;52.388;13.390;2024-01-06T01:45:12;0.98;93.72
57709;SHT35;42558;52.388;13.390;2024-01-06T01:47:42;1.00;93.73
57709;SHT35;42558;52.388;13.390;2024-01-06T01:50:12;0.97;93.70
57709;SHT35;42558;52.388;13.390;2024-01-06T01:52:42;0.99;93.71
57709;SHT35;42558;52.388;13.390;2024-01-06T01:55:12;0.96;93.68
57709;SHT35;42558;52.388;13.390;2024-01-06T01:57:41;0.98;93.67
57709;SHT35;42558;52.388;13.390;2024-01-06T02:00:11;0.97;93.62
57709;SHT35;42558;52.388;13.390;2024-01-06T02:02:41;0.96;93.63
57709;SHT35;42558;52.388;13.390;2024-01-06T02:05:11;0.94;93.59
57709;SHT35;42558;52.388;13.390;2024-01-06T02:07:40;0.92;93.56
57709;SHT35;42558;52.388;13.390;2024-01-06T02:10:09;0.96;93.60
57709;SHT35;42558;52.388;13.390;2024-01-06T02:12:39;0.99;93.60
57709;SHT35;42558;52.388;13.390;2024-01-06T02:15:08;1.01;93.60
57709;SHT35;42558;52.388;13.390;2024-01-06T02:17:38;0.95;93.51
57709;SHT35;42558;52.388;13.390;2024-01-06T02:20:09;0.91;93.50
57709;SHT35;42558;52.388;13.390;2024-01-06T02:22:43;0.92;93.48
57709;SHT35;42558;52.388;13.390;2024-01-06T02:25:12;0.93;93.50
57709;SHT35;42558;52.388;13.390;2024-01-06T02:27:42;0.90;93.47
57709;SHT35;42558;52.388;13.390;2024-01-06T02:30:12;0.89;93.40
57709;SHT35;42558;52.388;13.390;2024-01-06T02:32:41;0.93;93.43
57709;SHT35;42558;52.388;13.390;2024-01-06T02:35:10;0.93;93.42
57709;SHT35;42558;52.388;13.390;2024-01-06T02:37:40;0.95;93.43
57709;SHT35;42558;52.388;13.390;2024-01-06T02:40:09;0.91;93.41
57709;SHT35;42558;52.388;13.390;2024-01-06T02:42:40;0.87;93.40
57709;SHT35;42558;52.388;13.390;2024-01-06T02:45:10;0.86;93.45
57709;SHT35;42558;52.388;13.390;2024-01-06T02:47:38;0.91;93.48
57709;SHT35;42558;52.388;13.390;2024-01-06T02:50:07;0.95;93.50
57709;SHT35;42558;52.388;13.390;2024-01-06T02:52:35;0.93;93.43
57709;SHT35;42558;52.388;13.390;2024-01-06T02:55:04;0.92;93.40
57709;SHT35;42558;52.388;13.390;2024-01-06T02:57:32;0.86;93.38
57709;SHT35;42558;52.388;13.390;2024-01-06T03:00:00;0.86;93.39
57709;SHT35;42558;52.388;13.390;2024-01-06T03:02:29;0.89;93.39
57709;SHT35;42558;52.388;13.390;2024-01-06T03:04:57;0.90;93.40
57709;SHT35;42558;52.388;13.390;2024-01-06T03:07:26;0.87;93.40
57709;SHT35;42558;52.388;13.390;2024-01-06T03:09:54;0.86;93.39
57709;SHT35;42558;52.388;13.390;2024-01-06T03:12:23;0.81;93.36
57709;SHT35;42558;52.388;13.390;2024-01-06T03:14:51;0.82;93.40
57709;SHT35;42558;52.388;13.390;2024-01-06T03:17:19;0.84;93.40
57709;SHT35;42558;52.388;13.390;2024-01-06T03:19:48;0.85;93.42
57709;SHT35;42558;52.388;13.390;2024-01-06T03:22:16;0.88;93.41
57709;SHT35;42558;52.388;13.390;2024-01-06T03:24:45;0.93;93.40
57709;SHT35;42558;52.388;13.390;2024-01-06T03:27:13;0.92;93.39
57709;SHT35;42558;52.388;13.390;2024-01-06T03:29:42;0.91;93.38
57709;SHT35;42558;52.388;13.390;2024-01-06T03:32:10;0.89;93.31
57709;SHT35;42558;52.388;13.390;2024-01-06T03:34:40;0.85;93.37
57709;SHT35;42558;52.388;13.390;2024-01-06T03:37:36;0.85;93.40
57709;SHT35;42558;52.388;13.390;2024-01-06T03:40:05;0.86;93.45
57709;SHT35;42558;52.388;13.390;2024-01-06T03:42:38;0.89;93.49
57709;SHT35;42558;52.388;13.390;2024-01-06T03:45:08;0.92;93.50
57709;SHT35;42558;52.388;13.390;2024-01-06T03:47:37;0.93;93.50
57709;SHT35;42558;52.388;13.390;2024-01-06T03:50:07;0.98;93.50
57709;SHT35;42558;52.388;13.390;2024-01-06T03:52:37;0.94;93.43
57709;SHT35;42558;52.388;13.390;2024-01-06T03:55:06;0.97;93.42
57709;SHT35;42558;52.388;13.390;2024-01-06T03:57:36;0.92;93.39
57709;SHT35;42558;52.388;13.390;2024-01-06T04:00:06;0.85;93.39
57709;SHT35;42558;52.388;13.390;2024-01-06T04:02:39;0.85;93.45
57709;SHT35;42558;52.388;13.390;2024-01-06T04:05:09;0.87;93.49
57709;SHT35;42558;52.388;13.390;2024-01-06T04:07:38;0.85;93.50
57709;SHT35;42558;52.388;13.390;2024-01-06T04:10:07;0.88;93.50
57709;SHT35;42558;52.388;13.390;2024-01-06T04:12:37;0.86;93.50
57709;SHT35;42558;52.388;13.390;2024-01-06T04:15:06;0.82;93.51
57709;SHT35;42558;52.388;13.390;2024-01-06T04:17:36;0.84;93.55
57709;SHT35;42558;52.388;13.390;2024-01-06T04:20:06;0.84;93.58
57709;SHT35;42558;52.388;13.390;2024-01-06T04:22:41;0.85;93.57
57709;SHT35;42558;52.388;13.390;2024-01-06T04:25:10;0.83;93.50
57709;SHT35;42558;52.388;13.390;2024-01-06T04:27:39;0.82;93.50
57709;SHT35;42558;52.388;13.390;2024-01-06T04:30:09;0.81;93.50
57709;SHT35;42558;52.388;13.390;2024-01-06T04:32:40;0.80;93.53
57709;SHT35;42558;52.388;13.390;2024-01-06T04:35:10;0.80;93.55
57709;SHT35;42558;52.388;13.390;2024-01-06T04:37:39;0.81;93.57
57709;SHT35;42558;52.388;13.390;2024-01-06T04:40:08;0.79;93.58
57709;SHT35;42558;52.388;13.390;2024-01-06T04:42:39;0.80;93.60
57709;SHT35;42558;52.388;13.390;2024-01-06T04:45:08;0.85;93.59
57709;SHT35;42558;52.388;13.390;2024-01-06T04:47:36;0.84;93.55
57709;SHT35;42558;52.388;13.390;2024-01-06T04:50:05;0.81;93.50
57709;SHT35;42558;52.388;13.390;2024-01-06T04:52:33;0.79;93.50
57709;SHT35;42558;52.388;13.390;2024-01-06T04:55:01;0.78;93.53
57709;SHT35;42558;52.388;13.390;2024-01-06T04:57:30;0.72;93.51
57709;SHT35;42558;52.388;13.390;2024-01-06T04:59:58;0.79;93.58
57709;SHT35;42558;52.388;13.390;2024-01-06T05:02:27;0.79;93.56
57709;SHT35;42558;52.388;13.390;2024-01-06T05:04:55;0.75;93.53
57709;SHT35;42558;52.388;13.390;2024-01-06T05:07:23;0.70;93.54
57709;SHT35;42558;52.388;13.390;2024-01-06T05:09:52;0.75;93.60
57709;SHT35;42558;52.388;13.390;2024-01-06T05:12:20;0.75;93.58
57709;SHT35;42558;52.388;13.390;2024-01-06T05:14:49;0.71;93.59
57709;SHT35;42558;52.388;13.390;2024-01-06T05:17:17;0.72;93.60
57709;SHT35;42558;52.388;13.390;2024-01-06T05:19:45;0.73;93.58
57709;SHT35;42558;52.388;13.390;2024-01-06T05:22:14;0.71;93.54
57709;SHT35;42558;52.388;13.390;2024-01-06T05:24:42;0.69;93.53
57709;SHT35;42558;52.388;13.390;2024-01-06T05:27:11;0.65;93.51
57709;SHT35;42558;52.388;13.390;2024-01-06T05:29:42;0.68;93.59
57709;SHT35;42558;52.388;13.390;2024-01-06T05:32:12;0.67;93.60
57709;SHT35;42558;52.388;13.390;2024-01-06T05:34:41;0.63;93.57
57709;SHT35;42558;52.388;13.390;2024-01-06T05:37:10;0.69;93.60
57709;SHT35;42558;52.388;13.390;2024-01-06T05:39:40;0.70;93.58
57709;SHT35;42558;52.388;13.390;2024-01-06T05:42:09;0.70;93.56
57709;SHT35;42558;52.388;13.390;2024-01-06T05:44:43;0.69;93.51
57709;SHT35;42558;52.388;13.390;2024-01-06T05:47:13;0.71;93.52
57709;SHT35;42558;52.388;13.390;2024-01-06T05:49:42;0.70;93.52
57709;SHT35;42558;52.388;13.390;2024-01-06T05:52:13;0.76;93.52
57709;SHT35;42558;52.388;13.390;2024-01-06T05:54:42;0.73;93.47
57709;SHT35;42558;52.388;13.390;2024-01-06T05:57:12;0.68;93.40
57709;SHT35;42558;52.388;13.390;2024-01-06T05:59:41;0.69;93.40
57709;SHT35;42558;52.388;13.390;2024-01-06T06:02:10;0.71;93.40
57709;SHT35;42558;52.388;13.390;2024-01-06T06:04:39;0.73;93.40
57709;SHT35;42558;52.388;13.390;2024-01-06T06:07:09;0.72;93.34
57709;SHT35;42558;52.388;13.390;2024-01-06T06:09:38;0.75;93.34
57709;SHT35;42558;52.388;13.390;2024-01-06T06:12:09;0.74;93.30
57709;SHT35;42558;52.388;13.390;2024-01-06T06:14:38;0.71;93.23
57709;SHT35;42558;52.388;13.390;2024-01-06T06:17:07;0.69;93.20
57709;SHT35;42558;52.388;13.390;2024-01-06T06:19:36;0.72;93.22
57709;SHT35;42558;52.388;13.390;2024-01-06T06:22:06;0.73;93.20
57709;SHT35;42558;52.388;13.390;2024-01-06T06:24:35;0.76;93.20
57709;SHT35;42558;52.388;13.390;2024-01-06T06:27:04;0.75;93.19
57709;SHT35;42558;52.388;13.390;2024-01-06T06:29:33;0.71;93.09
57709;SHT35;42558;52.388;13.390;2024-01-06T06:32:03;0.72;93.11
57709;SHT35;42558;52.388;13.390;2024-01-06T06:34:32;0.71;93.10
57709;SHT35;42558;52.388;13.390;2024-01-06T06:37:02;0.72;93.10
57709;SHT35;42558;52.388;13.390;2024-01-06T06:39:32;0.70;93.10
57709;SHT35;42558;52.388;13.390;2024-01-06T06:42:04;0.70;93.10
57709;SHT35;42558;52.388;13.390;2024-01-06T06:44:33;0.72;93.09
57709;SHT35;42558;52.388;13.390;2024-01-06T06:47:02;0.67;93.01
57709;SHT35;42558;52.388;13.390;2024-01-06T06:49:32;0.66;93.00
57709;SHT35;42558;52.388;13.390;2024-01-06T06:52:01;0.65;92.99
57709;SHT35;42558;52.388;13.390;2024-01-06T06:54:32;0.63;92.99
57709;SHT35;42558;52.388;13.390;2024-01-06T06:57:01;0.63;92.97
57709;SHT35;42558;52.388;13.390;2024-01-06T06:59:31;0.69;93.01
57709;SHT35;42558;52.388;13.390;2024-01-06T07:02:01;0.65;92.96
57709;SHT35;42558;52.388;13.390;2024-01-06T07:04:30;0.63;92.91
57709;SHT35;42558;52.388;13.390;2024-01-06T07:06:59;0.66;92.90
57709;SHT35;42558;52.388;13.390;2024-01-06T07:09:28;0.71;92.91
57709;SHT35;42558;52.388;13.390;2024-01-06T07:11:58;0.71;92.90
57709;SHT35;42558;52.388;13.390;2024-01-06T07:14:27;0.67;92.80
57709;SHT35;42558;52.388;13.390;2024-01-06T07:16:56;0.71;92.84
57709;SHT35;42558;52.388;13.390;2024-01-06T07:19:26;0.67;92.72
57709;SHT35;42558;52.388;13.390;2024-01-06T07:21:56;0.66;92.72
57709;SHT35;42558;52.388;13.390;2024-01-06T07:24:25;0.60;92.66
57709;SHT35;42558;52.388;13.390;2024-01-06T07:26:55;0.62;92.71
57709;SHT35;42558;52.388;13.390;2024-01-06T07:29:24;0.60;92.70
57709;SHT35;42558;52.388;13.390;2024-01-06T07:31:54;0.65;92.77
57709;SHT35;42558;52.388;13.390;2024-01-06T07:34:23;0.66;92.73
57709;SHT35;42558;52.388;13.390;2024-01-06T07:36:54;0.65;92.70
57709;SHT35;42558;52.388;13.390;2024-01-06T07:39:23;0.61;92.65
57709;SHT35;42558;52.388;13.390;2024-01-06T07:41:53;0.59;92.68
57709;SHT35;42558;52.388;13.390;2024-01-06T07:44:22;0.59;92.72
57709;SHT35;42558;52.388;13.390;2024-01-06T07:46:53;0.57;92.79
57709;SHT35;42558;52.388;13.390;2024-01-06T07:49:21;0.57;92.80
57709;SHT35;42558;52.388;13.390;2024-01-06T07:51:50;0.58;92.81
57709;SHT35;42558;52.388;13.390;2024-01-06T07:54:18;0.55;92.80
57709;SHT35;42558;52.388;13.390;2024-01-06T07:56:47;0.55;92.86
57709;SHT35;42558;52.388;13.390;2024-01-06T07:59:15;0.59;92.89
57709;SHT35;42558;52.388;13.390;2024-01-06T08:01:44;0.58;92.86
57709;SHT35;42558;52.388;13.390;2024-01-06T08:04:12;0.58;92.82
57709;SHT35;42558;52.388;13.390;2024-01-06T08:06:40;0.53;92.83
57709;SHT35;42558;52.388;13.390;2024-01-06T08:09:09;0.53;92.90
57709;SHT35;42558;52.388;13.390;2024-01-06T08:11:37;0.53;92.88
57709;SHT35;42558;52.388;13.390;2024-01-06T08:14:06;0.48;92.96
57709;SHT35;42558;52.388;13.390;2024-01-06T08:16:35;0.48;93.00
57709;SHT35;42558;52.388;13.390;2024-01-06T08:19:02;0.50;93.04
57709;SHT35;42558;52.388;13.390;2024-01-06T08:21:30;0.52;93.09
57709;SHT35;42558;52.388;13.390;2024-01-06T08:23:59;0.50;93.12
57709;SHT35;42558;52.388;13.390;2024-01-06T08:26:27;0.47;93.09
57709;SHT35;42558;52.388;13.390;2024-01-06T08:28:56;0.45;93.19
57709;SHT35;42558;52.388;13.390;2024-01-06T08:31:24;0.47;93.21
57709;SHT35;42558;52.388;13.390;2024-01-06T08:33:53;0.53;93.25
57709;SHT35;42558;52.388;13.390;2024-01-06T08:36:21;0.46;93.21
57709;SHT35;42558;52.388;13.390;2024-01-06T08:38:50;0.46;93.23
57709;SHT35;42558;52.388;13.390;2024-01-06T08:41:18;0.38;93.27
57709;SHT35;42558;52.388;13.390;2024-01-06T08:43:46;0.40;93.39
57709;SHT35;42558;52.388;13.390;2024-01-06T08:46:15;0.43;93.39
57709;SHT35;42558;52.388;13.390;2024-01-06T08:48:43;0.42;93.39
57709;SHT35;42558;52.388;13.390;2024-01-06T08:51:12;0.34;93.40
57709;SHT35;42558;52.388;13.390;2024-01-06T08:53:40;0.37;93.40
57709;SHT35;42558;52.388;13.390;2024-01-06T08:56:09;0.30;93.41
57709;SHT35;42558;52.388;13.390;2024-01-06T08:58:37;0.33;93.51
57709;SHT35;42558;52.388;13.390;2024-01-06T09:01:06;0.29;93.52
57709;SHT35;42558;52.388;13.390;2024-01-06T09:03:34;0.28;93.57
57709;SHT35;42558;52.388;13.390;2024-01-06T09:06:02;0.27;93.61
57709;SHT35;42558;52.388;13.390;2024-01-06T09:08:32;0.34;93.65
57709;SHT35;42558;52.388;13.390;2024-01-06T09:11:02;0.37;93.62
57709;SHT35;42558;52.388;13.390;2024-01-06T09:13:31;0.28;93.57
57709;SHT35;42558;52.388;13.390;2024-01-06T09:16:01;0.21;93.59
57709;SHT35;42558;52.388;13.390;2024-01-06T09:18:31;0.29;93.70
57709;SHT35;42558;52.388;13.390;2024-01-06T09:21:01;0.31;93.72
57709;SHT35;42558;52.388;13.390;2024-01-06T09:23:31;0.30;93.72
57709;SHT35;42558;52.388;13.390;2024-01-06T09:26:01;0.29;93.70
57709;SHT35;42558;52.388;13.390;2024-01-06T09:28:30;0.27;93.70
57709;SHT35;42558;52.388;13.390;2024-01-06T09:31:00;0.35;93.70
57709;SHT35;42558;52.388;13.390;2024-01-06T09:33:29;0.32;93.65
57709;SHT35;42558;52.388;13.390;2024-01-06T09:35:56;0.26;93.62
57709;SHT35;42558;52.388;13.390;2024-01-06T09:38:26;0.20;93.60
57709;SHT35;42558;52.388;13.390;2024-01-06T09:40:53;0.27;93.66
57709;SHT35;42558;52.388;13.390;2024-01-06T09:43:24;0.31;93.66
57709;SHT35;42558;52.388;13.390;2024-01-06T09:46:00;0.24;93.58
57709;SHT35;42558;52.388;13.390;2024-01-06T09:48:39;0.21;93.60
57709;SHT35;42558;52.388;13.390;2024-01-06T09:51:13;0.14;93.56
57709;SHT35;42558;52.388;13.390;2024-01-06T09:53:48;0.10;93.56
57709;SHT35;42558;52.388;13.390;2024-01-06T09:56:29;0.13;93.58
57709;SHT35;42558;52.388;13.390;2024-01-06T09:58:58;0.20;93.60
57709;SHT35;42558;52.388;13.390;2024-01-06T10:01:28;0.13;93.50
57709;SHT35;42558;52.388;13.390;2024-01-06T10:03:57;0.14;93.48
57709;SHT35;42558;52.388;13.390;2024-01-06T10:06:27;0.18;93.50
57709;SHT35;42558;52.388;13.390;2024-01-06T10:08:56;0.14;93.41
57709;SHT35;42558;52.388;13.390;2024-01-06T10:11:24;0.00;93.32
57709;SHT35;42558;52.388;13.390;2024-01-06T10:13:53;-0.00;93.39
57709;SHT35;42558;52.388;13.390;2024-01-06T10:16:21;0.01;93.40
57709;SHT35;42558;52.388;13.390;2024-01-06T10:18:50;0.12;93.48
57709;SHT35;42558;52.388;13.390;2024-01-06T10:21:22;0.14;93.46
57709;SHT35;42558;52.388;13.390;2024-01-06T10:23:54;0.12;93.39
57709;SHT35;42558;52.388;13.390;2024-01-06T10:26:24;0.09;93.32
57709;SHT35;42558;52.388;13.390;2024-01-06T10:28:54;-0.03;93.26
57709;SHT35;42558;52.388;13.390;2024-01-06T10:31:24;-0.01;93.28
57709;SHT35;42558;52.388;13.390;2024-01-06T10:33:55;0.02;93.31
57709;SHT35;42558;52.388;13.390;2024-01-06T10:36:25;0.00;93.30
57709;SHT35;42558;52.388;13.390;2024-01-06T10:38:55;-0.04;93.24
57709;SHT35;42558;52.388;13.390;2024-01-06T10:41:26;-0.05;93.20
57709;SHT35;42558;52.388;13.390;2024-01-06T10:43:58;-0.06;93.17
57709;SHT35;42558;52.388;13.390;2024-01-06T10:46:30;-0.02;93.20
57709;SHT35;42558;52.388;13.390;2024-01-06T10:49:01;0.00;93.17
57709;SHT35;42558;52.388;13.390;2024-01-06T10:51:33;-0.02;93.09
57709;SHT35;42558;52.388;13.390;2024-01-06T10:54:06;-0.06;92.97
57709;SHT35;42558;52.388;13.390;2024-01-06T10:56:36;0.01;93.00
57709;SHT35;42558;52.388;13.390;2024-01-06T10:59:09;-0.01;92.87
57709;SHT35;42558;52.388;13.390;2024-01-06T11:01:42;0.05;92.90
57709;SHT35;42558;52.388;13.390;2024-01-06T11:04:14;-0.02;92.70
57709;SHT35;42558;52.388;13.390;2024-01-06T11:06:45;-0.06;92.56
57709;SHT35;42558;52.388;13.390;2024-01-06T11:09:18;-0.13;92.42
57709;SHT35;42558;52.388;13.390;2024-01-06T11:11:55;-0.11;92.46
57709;SHT35;42558;52.388;13.390;2024-01-06T11:14:26;-0.09;92.43
57709;SHT35;42558;52.388;13.390;2024-01-06T11:16:54;-0.02;92.48
57709;SHT35;42558;52.388;13.390;2024-01-06T11:22:19;0.10;92.45
57709;SHT35;42558;52.388;13.390;2024-01-06T11:25:04;0.02;92.21
57709;SHT35;42558;52.388;13.390;2024-01-06T11:27:46;-0.09;92.00
57709;SHT35;42558;52.388;13.390;2024-01-06T11:32:55;-0.01;92.05
57709;SHT35;42558;52.388;13.390;2024-01-06T11:35:27;0.02;92.02
57709;SHT35;42558;52.388;13.390;2024-01-06T11:37:56;-0.12;91.75
57709;SHT35;42558;52.388;13.390;2024-01-06T11:40:33;-0.12;91.78
57709;SHT35;42558;52.388;13.390;2024-01-06T11:43:09;-0.11;91.76
57709;SHT35;42558;52.388;13.390;2024-01-06T11:45:41;-0.05;91.76
57709;SHT35;42558;52.388;13.390;2024-01-06T11:48:11;-0.04;91.66
57709;SHT35;42558;52.388;13.390;2024-01-06T11:50:41;-0.11;91.49
57709;SHT35;42558;52.388;13.390;2024-01-06T11:53:10;-0.17;91.41
57709;SHT35;42558;52.388;13.390;2024-01-06T11:55:40;-0.13;91.45
57709;SHT35;42558;52.388;13.390;2024-01-06T11:58:11;-0.12;91.42
57709;SHT35;42558;52.388;13.390;2024-01-06T12:00:40;-0.11;91.38
57709;SHT35;42558;52.388;13.390;2024-01-06T12:03:10;-0.12;91.23
57709;SHT35;42558;52.388;13.390;2024-01-06T12:05:40;-0.15;91.13
57709;SHT35;42558;52.388;13.390;2024-01-06T12:08:09;-0.18;90.98
57709;SHT35;42558;52.388;13.390;2024-01-06T12:10:36;-0.15;91.02
57709;SHT35;42558;52.388;13.390;2024-01-06T12:13:06;-0.17;90.90
57709;SHT35;42558;52.388;13.390;2024-01-06T12:15:41;-0.16;90.87
57709;SHT35;42558;52.388;13.390;2024-01-06T12:18:10;-0.11;90.92
57709;SHT35;42558;52.388;13.390;2024-01-06T12:20:37;-0.04;90.96
57709;SHT35;42558;52.388;13.390;2024-01-06T12:23:04;0.02;90.91
57709;SHT35;42558;52.388;13.390;2024-01-06T12:25:34;-0.00;90.67
57709;SHT35;42558;52.388;13.390;2024-01-06T12:28:08;-0.03;90.51
57709;SHT35;42558;52.388;13.390;2024-01-06T12:30:35;-0.16;90.03
57709;SHT35;42558;52.388;13.390;2024-01-06T12:33:05;-0.18;90.13
57709;SHT35;42558;52.388;13.390;2024-01-06T12:35:34;-0.11;90.23
57709;SHT35;42558;52.388;13.390;2024-01-06T12:38:04;-0.07;90.09
57709;SHT35;42558;52.388;13.390;2024-01-06T12:40:35;-0.09;89.83
57709;SHT35;42558;52.388;13.390;2024-01-06T12:43:06;-0.13;89.66
57709;SHT35;42558;52.388;13.390;2024-01-06T12:45:36;-0.20;89.54
57709;SHT35;42558;52.388;13.390;2024-01-06T12:48:05;-0.20;89.57
57709;SHT35;42558;52.388;13.390;2024-01-06T12:50:35;-0.18;89.53
57709;SHT35;42558;52.388;13.390;2024-01-06T12:53:05;-0.15;89.59
57709;SHT35;42558;52.388;13.390;2024-01-06T12:55:34;-0.14;89.47
57709;SHT35;42558;52.388;13.390;2024-01-06T12:58:04;-0.14;89.60
57709;SHT35;42558;52.388;13.390;2024-01-06T13:00:33;-0.18;89.52
57709;SHT35;42558;52.388;13.390;2024-01-06T13:03:04;-0.25;89.58
57709;SHT35;42558;52.388;13.390;2024-01-06T13:05:33;-0.33;89.45
57709;SHT35;42558;52.388;13.390;2024-01-06T13:08:03;-0.30;89.50
57709;SHT35;42558;52.388;13.390;2024-01-06T13:10:33;-0.27;89.47
57709;SHT35;42558;52.388;13.390;2024-01-06T13:13:03;-0.30;89.26
57709;SHT35;42558;52.388;13.390;2024-01-06T13:15:32;-0.27;89.27
57709;SHT35;42558;52.388;13.390;2024-01-06T13:18:02;-0.28;89.12
57709;SHT35;42558;52.388;13.390;2024-01-06T13:20:32;-0.32;88.96
57709;SHT35;42558;52.388;13.390;2024-01-06T13:23:01;-0.34;88.93
57709;SHT35;42558;52.388;13.390;2024-01-06T13:25:29;-0.33;88.99
57709;SHT35;42558;52.388;13.390;2024-01-06T13:27:58;-0.33;88.88
57709;SHT35;42558;52.388;13.390;2024-01-06T13:30:26;-0.34;88.92
57709;SHT35;42558;52.388;13.390;2024-01-06T13:32:54;-0.37;88.92
57709;SHT35;42558;52.388;13.390;2024-01-06T13:35:23;-0.35;89.00
57709;SHT35;42558;52.388;13.390;2024-01-06T13:37:52;-0.32;89.04
57709;SHT35;42558;52.388;13.390;2024-01-06T13:40:20;-0.31;88.99
57709;SHT35;42558;52.388;13.390;2024-01-06T13:42:49;-0.26;89.03
57709;SHT35;42558;52.388;13.390;2024-01-06T13:45:20;-0.33;88.79
57709;SHT35;42558;52.388;13.390;2024-01-06T13:47:48;-0.36;88.81
57709;SHT35;42558;52.388;13.390;2024-01-06T13:50:16;-0.38;88.92
57709;SHT35;42558;52.388;13.390;2024-01-06T13:52:45;-0.37;88.99
57709;SHT35;42558;52.388;13.390;2024-01-06T13:55:13;-0.38;89.02
57709;SHT35;42558;52.388;13.390;2024-01-06T13:57:42;-0.40;88.92
57709;SHT35;42558;52.388;13.390;2024-01-06T14:00:11;-0.37;88.99
57709;SHT35;42558;52.388;13.390;2024-01-06T14:02:47;-0.29;89.11
57709;SHT35;42558;52.388;13.390;2024-01-06T14:05:16;-0.27;89.05
57709;SHT35;42558;52.388;13.390;2024-01-06T14:07:47;-0.33;88.87
57709;SHT35;42558;52.388;13.390;2024-01-06T14:10:19;-0.37;88.81
57709;SHT35;42558;52.388;13.390;2024-01-06T14:12:49;-0.36;88.81
57709;SHT35;42558;52.388;13.390;2024-01-06T14:15:18;-0.35;88.83
57709;SHT35;42558;52.388;13.390;2024-01-06T14:17:48;-0.34;88.80
57709;SHT35;42558;52.388;13.390;2024-01-06T14:20:18;-0.31;88.75
57709;SHT35;42558;52.388;13.390;2024-01-06T14:22:48;-0.34;88.73
57709;SHT35;42558;52.388;13.390;2024-01-06T14:25:18;-0.30;88.79
57709;SHT35;42558;52.388;13.390;2024-01-06T14:27:47;-0.36;88.58
57709;SHT35;42558;52.388;13.390;2024-01-06T14:30:16;-0.38;88.60
57709;SHT35;42558;52.388;13.390;2024-01-06T14:32:46;-0.35;88.66
57709;SHT35;42558;52.388;13.390;2024-01-06T14:35:15;-0.37;88.58
57709;SHT35;42558;52.388;13.390;2024-01-06T14:37:45;-0.37;88.70
57709;SHT35;42558;52.388;13.390;2024-01-06T14:40:14;-0.37;88.68
57709;SHT35;42558;52.388;13.390;2024-01-06T14:42:44;-0.35;88.68
57709;SHT35;42558;52.388;13.390;2024-01-06T14:45:13;-0.42;88.43
57709;SHT35;42558;52.388;13.390;2024-01-06T14:47:42;-0.41;88.45
57709;SHT35;42558;52.388;13.390;2024-01-06T14:50:12;-0.39;88.43
57709;SHT35;42558;52.388;13.390;2024-01-06T14:52:41;-0.40;88.40
57709;SHT35;42558;52.388;13.390;2024-01-06T14:55:11;-0.38;88.48
57709;SHT35;42558;52.388;13.390;2024-01-06T14:57:40;-0.35;88.57
57709;SHT35;42558;52.388;13.390;2024-01-06T15:00:10;-0.32;88.53
57709;SHT35;42558;52.388;13.390;2024-01-06T15:02:40;-0.35;88.41
57709;SHT35;42558;52.388;13.390;2024-01-06T15:05:10;-0.34;88.39
57709;SHT35;42558;52.388;13.390;2024-01-06T15:07:39;-0.38;88.28
57709;SHT35;42558;52.388;13.390;2024-01-06T15:10:09;-0.40;88.22
57709;SHT35;42558;52.388;13.390;2024-01-06T15:12:39;-0.39;88.35
57709;SHT35;42558;52.388;13.390;2024-01-06T15:15:09;-0.37;88.35
57709;SHT35;42558;52.388;13.390;2024-01-06T15:17:38;-0.35;88.24
57709;SHT35;42558;52.388;13.390;2024-01-06T15:20:08;-0.41;88.02
57709;SHT35;42558;52.388;13.390;2024-01-06T15:22:40;-0.39;88.08
57709;SHT35;42558;52.388;13.390;2024-01-06T15:25:10;-0.41;87.89
57709;SHT35;42558;52.388;13.390;2024-01-06T15:27:40;-0.47;87.79
57709;SHT35;42558;52.388;13.390;2024-01-06T15:30:09;-0.44;87.80
57709;SHT35;42558;52.388;13.390;2024-01-06T15:32:41;-0.44;87.62
57709;SHT35;42558;52.388;13.390;2024-01-06T15:35:10;-0.41;87.67
57709;SHT35;42558;52.388;13.390;2024-01-06T15:37:40;-0.40;87.50
57709;SHT35;42558;52.388;13.390;2024-01-06T15:40:09;-0.36;87.55
57709;SHT35;42558;52.388;13.390;2024-01-06T15:42:43;-0.33;87.53
57709;SHT35;42558;52.388;13.390;2024-01-06T15:45:11;-0.32;87.44